This is the latest recevied weather packets stored in our database for station/object W2GUX. If no packets are shown the sender has not sent any weather packets the latest 10 day(s).
| Time | Temp. | Humidity | Pressure | Rain* | Wind** | Luminosity | Snow |
|---|---|---|---|---|---|---|---|
| 1777839604 | 15.56° C | 23% | 1007.5 hPa | 0 mm | - | - | - |
| 1777839303 | 15° C | 24% | 1007.4 hPa | 0 mm | - | - | - |
| 1777839004 | 15° C | 23% | 1007.6 hPa | 0 mm | - | - | - |
| 1777838703 | 15.56° C | 22% | 1007.7 hPa | 0 mm | - | - | - |
| 1777838404 | 15.56° C | 23% | 1007.6 hPa | 0 mm | - | - | - |
| 1777838103 | 15° C | 22% | 1007.7 hPa | 0 mm | - | - | - |
| 1777837804 | 15° C | 23% | 1007.7 hPa | 0 mm | - | - | - |
| 1777837503 | 15° C | 23% | 1007.6 hPa | 0 mm | - | - | - |
| 1777837204 | 15° C | 23% | 1007.9 hPa | 0 mm | - | - | - |
| 1777836903 | 15° C | 25% | 1007.9 hPa | 0 mm | - | - | - |
| 1777836604 | 15° C | 25% | 1007.9 hPa | 0 mm | - | - | - |
| 1777836303 | 15° C | 24% | 1008.1 hPa | 0 mm | - | - | - |
| 1777836003 | 15° C | 24% | 1007.9 hPa | 0 mm | - | - | - |
| 1777835704 | 15° C | 24% | 1008.1 hPa | 0 mm | - | - | - |
| 1777835403 | 15° C | 25% | 1008 hPa | 0 mm | - | - | - |
| 1777835104 | 15° C | 23% | 1008.1 hPa | 0 mm | - | - | - |
| 1777834803 | 15° C | 26% | 1008 hPa | 0 mm | - | - | - |
| 1777834504 | 14.44° C | 25% | 1008 hPa | 0 mm | - | - | - |
| 1777834203 | 15° C | 24% | 1008.2 hPa | 0 mm | - | - | - |
| 1777833904 | 15.56° C | 24% | 1008.2 hPa | 0 mm | - | - | - |
| 1777833603 | 15° C | 26% | 1008 hPa | 0 mm | - | - | - |
| 1777833303 | 15° C | 25% | 1008.3 hPa | 0 mm | - | - | - |
| 1777833003 | 14.44° C | 27% | 1008.2 hPa | 0 mm | - | - | - |
| 1777832704 | 14.44° C | 26% | 1008.2 hPa | 0 mm | - | - | - |
| 1777832404 | 14.44° C | 27% | 1008.2 hPa | 0 mm | - | - | - |
* Rain latest hour (hover to see other rain measurements)
** Current wind speed in m/s (hover to see current wind gust speed)